Time;durP1;ratioP1;P1;durP2;ratioP2;P2;SDS_P1;SDS_P2;PMS_P1;PMS_P2;Temp;Humidity;BMP_temperature;BMP_pressure;BME280_temperature;BME280_humidity;BME280_pressure;Samples;Min_cycle;Max_cycle;Signal;HPM_P1;HPM_P2
2022/10/10 00:00:47;;;;;;;14.85;9.05;;;;;;;;;;4994641;28;20022;-68
2022/10/10 00:03:12;;;;;;;13.75;7.90;;;;;;;;;;4991240;28;20069;-67
2022/10/10 00:05:38;;;;;;;14.73;8.15;;;;;;;;;;4992353;28;20129;-68
2022/10/10 00:08:04;;;;;;;14.32;8.48;;;;;;;;;;4992038;28;20555;-67
2022/10/10 00:10:29;;;;;;;13.48;8.27;;;;;;;;;;4991875;28;20384;-68
2022/10/10 00:12:55;;;;;;;16.13;8.73;;;;;;;;;;4992135;28;20088;-68
2022/10/10 00:15:20;;;;;;;14.05;8.70;;;;;;;;;;4988164;28;20296;-68
2022/10/10 00:17:45;;;;;;;14.83;8.70;;;;;;;;;;4991737;28;20164;-67
2022/10/10 00:20:11;;;;;;;13.43;8.70;;;;;;;;;;4992464;28;20279;-68
2022/10/10 00:22:36;;;;;;;18.92;9.02;;;;;;;;;;4990529;28;20490;-68
2022/10/10 00:25:02;;;;;;;18.37;8.50;;;;;;;;;;4992648;28;20546;-67
2022/10/10 00:27:27;;;;;;;12.07;8.52;;;;;;;;;;4988245;28;20280;-67
2022/10/10 00:29:52;;;;;;;11.53;7.97;;;;;;;;;;4991304;28;20487;-68
2022/10/10 00:32:17;;;;;;;15.03;9.00;;;;;;;10.04;nan;101286.50;4991794;28;20294;-68
2022/10/10 00:34:43;;;;;;;16.05;9.18;;;;;;;;;;4993095;28;20283;-67
2022/10/10 00:37:08;;;;;;;14.93;8.87;;;;;;;;;;4991716;28;20041;-67
2022/10/10 00:39:33;;;;;;;15.18;8.93;;;;;;;;;;4992229;28;20489;-67
2022/10/10 00:41:58;;;;;;;13.67;9.50;;;;;;;;;;4990511;28;20081;-67
2022/10/10 00:44:25;;;;;;;16.77;9.37;;;;;;;;;;4992907;28;20279;-67
2022/10/10 00:46:51;;;;;;;15.43;9.32;;;;;;;;;;4990312;28;20109;-67
2022/10/10 00:49:17;;;;;;;16.20;9.67;;;;;;;;;;4991782;28;20105;-67
2022/10/10 00:51:44;;;;;;;16.90;9.30;;;;;;;;;;4991205;28;20342;-68
2022/10/10 00:54:11;;;;;;;16.15;9.95;;;;;;;;;;5005211;28;20030;-67
2022/10/10 00:56:42;;;;;;;18.20;9.88;;;;;;;;;;4990997;28;20069;-67
2022/10/10 00:59:10;;;;;;;18.92;10.27;;;;;;;;;;4993997;28;20045;-67
2022/10/10 01:01:35;;;;;;;19.58;10.48;;;;;;;;;;4990866;28;20492;-67
2022/10/10 01:04:01;;;;;;;17.77;10.18;;;;;;;;;;4992473;28;20181;-67
2022/10/10 01:06:26;;;;;;;16.30;9.75;;;;;;;;;;5006452;28;20030;-68
2022/10/10 01:08:52;;;;;;;15.00;9.20;;;;;;;;;;4991379;28;20035;-68
2022/10/10 01:11:29;;;;;;;16.45;10.30;;;;;;;;;;4989935;28;20128;-68
2022/10/10 01:13:58;;;;;;;15.98;10.50;;;;;;;;;;4992851;28;20025;-66
2022/10/10 01:16:31;;;;;;;17.25;10.00;;;;;;;;;;4989221;28;20072;-67
2022/10/10 01:19:09;;;;;;;19.95;10.60;;;;;;;;;;4991297;28;20076;-67
2022/10/10 01:21:44;;;;;;;17.95;11.05;;;;;;;;;;4988272;28;20049;-67
2022/10/10 01:24:22;;;;;;;18.70;10.63;;;;;;;;;;4990185;28;20052;-68
2022/10/10 01:27:03;;;;;;;20.45;11.77;;;;;;;;;;4987975;28;20420;-68
2022/10/10 01:29:47;;;;;;;21.50;11.73;;;;;;;;;;4991253;28;20026;-68
2022/10/10 01:32:25;;;;;;;18.77;11.27;;;;;;;;;;4989848;28;20504;-67
2022/10/10 01:35:10;;;;;;;23.67;12.35;;;;;;;;;;4988117;28;20036;-68
2022/10/10 01:37:39;;;;;;;21.88;12.38;;;;;;;;;;4988419;28;20046;-68
2022/10/10 01:40:10;;;;;;;20.08;12.25;;;;;;;;;;4991075;28;20164;-69
2022/10/10 01:42:46;;;;;;;24.27;13.35;;;;;;;;;;4990840;28;20035;-69
2022/10/10 01:45:11;;;;;;;23.40;13.38;;;;;;;;;;5004175;28;20037;-68
2022/10/10 01:47:37;;;;;;;24.57;13.93;;;;;;;;;;4989817;28;20030;-68
2022/10/10 01:50:05;;;;;;;21.85;14.75;;;;;;;;;;4990460;28;20382;-68
2022/10/10 01:52:33;;;;;;;23.80;14.52;;;;;;;;;;4988042;28;20030;-68
2022/10/10 01:55:14;;;;;;;27.63;15.98;;;;;;;;;;4989891;28;20044;-68
2022/10/10 01:57:57;;;;;;;25.65;14.95;;;;;;;;;;4989712;28;20034;-68
2022/10/10 02:00:23;;;;;;;25.42;15.10;;;;;;;;;;4990087;28;20030;-68
2022/10/10 02:02:48;;;;;;;27.10;15.17;;;;;;;;;;4990132;28;20046;-68
2022/10/10 02:05:16;;;;;;;26.27;14.80;;;;;;;;;;4990297;28;20038;-68
2022/10/10 02:07:41;;;;;;;23.20;15.20;;;;;;;;;;4989154;28;20041;-68
2022/10/10 02:10:07;;;;;;;24.60;14.70;;;;;;;;;;4990489;28;20396;-68
2022/10/10 02:12:33;;;;;;;24.58;14.23;;;;;;;;;;4988508;28;20341;-68
2022/10/10 02:15:03;;;;;;;26.27;13.95;;;;;;;;;;4990011;28;20133;-68
2022/10/10 02:17:29;;;;;;;27.33;13.77;;;;;;;;;;4990433;28;20037;-68
2022/10/10 02:19:57;;;;;;;26.10;13.88;;;;;;;;;;4991799;28;20030;-68
2022/10/10 02:22:23;;;;;;;22.85;13.23;;;;;;;;;;4989259;28;20058;-68
2022/10/10 02:24:50;;;;;;;23.67;13.65;;;;;;;;;;4990862;28;20551;-68
2022/10/10 02:27:29;;;;;;;25.80;13.32;;;;;;;;;;4992154;28;20400;-68
2022/10/10 02:29:57;;;;;;;19.40;12.00;;;;;;;;;;4987100;28;20026;-68
2022/10/10 02:32:22;;;;;;;21.48;12.27;;;;;;;;;;4989990;28;20030;-68
2022/10/10 02:34:49;;;;;;;21.60;11.63;;;;;;;;;;4990581;28;20516;-68
2022/10/10 02:37:14;;;;;;;23.27;11.32;;;;;;;;;;4990297;28;20068;-68
2022/10/10 02:39:42;;;;;;;19.63;11.10;;;;;;;;;;4991443;28;20057;-69
2022/10/10 02:42:08;;;;;;;17.05;10.95;;;;;;;;;;4988361;28;20027;-68
2022/10/10 02:44:34;;;;;;;19.25;11.25;;;;;;;;;;4989338;28;20109;-68
2022/10/10 02:46:59;;;;;;;20.25;11.00;;;;;;;;;;4990434;28;20129;-68
2022/10/10 02:49:26;;;;;;;19.07;10.93;;;;;;;;;;4991376;28;20030;-68
2022/10/10 02:51:51;;;;;;;19.83;11.20;;;;;;;;;;4989167;28;20350;-68
2022/10/10 02:54:16;;;;;;;23.50;11.63;;;;;;;;;;5004680;28;20034;-68
2022/10/10 02:56:42;;;;;;;31.53;13.53;;;;;;;;;;4989222;28;20283;-68
2022/10/10 02:59:07;;;;;;;38.10;17.97;;;;;;;;;;4990571;28;20368;-68
2022/10/10 03:01:32;;;;;;;22.33;11.47;;;;;;;;;;4989374;28;20041;-68
2022/10/10 03:03:57;;;;;;;21.90;11.33;;;;;;;;;;4989603;28;20034;-68
2022/10/10 03:06:23;;;;;;;21.47;11.03;;;;;;;;;;4993062;28;20337;-68
2022/10/10 03:08:48;;;;;;;21.60;11.10;;;;;;;;;;4993261;28;20061;-68
2022/10/10 03:11:13;;;;;;;15.98;10.55;;;;;;;;;;4991450;28;20065;-68
2022/10/10 03:13:38;;;;;;;23.07;11.27;;;;;;;;;;4993144;28;20121;-68
2022/10/10 03:16:05;;;;;;;20.33;11.27;;;;;;;;;;4991272;28;20790;-69
2022/10/10 03:18:30;;;;;;;16.27;10.40;;;;;;;;;;4991956;28;20492;-68
2022/10/10 03:20:56;;;;;;;18.98;11.45;;;;;;;;;;4992462;28;20033;-68
2022/10/10 03:23:22;;;;;;;20.23;11.90;;;;;;;;;;5006760;28;20042;-68
2022/10/10 03:25:47;;;;;;;18.17;11.32;;;;;;;;;;4993062;28;20310;-68
2022/10/10 03:28:13;;;;;;;19.90;11.07;;;;;;;;;;4992671;28;20480;-68
2022/10/10 03:30:38;;;;;;;22.77;11.38;;;;;;;;;;4986609;28;20038;-68
2022/10/10 03:33:04;;;;;;;22.80;11.80;;;;;;;;;;4989397;28;20022;-67
2022/10/10 03:35:30;;;;;;;23.90;11.43;;;;;;;;;;4991199;28;20026;-68
2022/10/10 03:37:55;;;;;;;21.97;12.03;;;;;;;;;;4992360;28;20026;-68
2022/10/10 03:40:21;;;;;;;18.67;11.57;;;;;;;;;;4992299;28;20880;-67
2022/10/10 03:42:46;;;;;;;25.07;11.60;;;;;;;;;;4990656;28;20085;-68
2022/10/10 03:45:11;;;;;;;19.53;11.77;;;;;;;;;;4988490;28;20294;-67
2022/10/10 03:47:36;;;;;;;20.73;12.27;;;;;;;;;;4991244;28;20388;-68
2022/10/10 03:50:02;;;;;;;30.17;13.73;;;;;;;;;;4991068;28;20022;-68
2022/10/10 03:52:27;;;;;;;19.30;12.00;;;;;;;;;;4990215;28;20034;-66
2022/10/10 03:54:52;;;;;;;23.60;13.90;;;;;;;;;;4991790;28;20065;-66
2022/10/10 03:57:17;;;;;;;24.10;13.30;;;;;;;;;;4986816;28;20511;-65
2022/10/10 03:59:42;;;;;;;25.67;13.43;;;;;;;;;;4990259;28;20476;-65
2022/10/10 04:02:08;;;;;;;22.30;12.43;;;;;;;;;;4992101;28;20426;-66
2022/10/10 04:04:33;;;;;;;23.20;12.30;;;;;;;;;;4991200;28;20037;-65
2022/10/10 04:06:58;;;;;;;16.87;11.70;;;;;;;;;;4991741;28;20022;-66
2022/10/10 04:09:24;;;;;;;20.35;12.27;;;;;;;;;;4994759;28;20315;-65
2022/10/10 04:11:49;;;;;;;21.85;12.85;;;;;;;;;;4990030;28;20555;-66
2022/10/10 04:14:14;;;;;;;27.03;13.60;;;;;;;;;;4940862;28;1272772;-66
2022/10/10 04:16:39;;;;;;;28.60;13.53;;;;;;;;;;4985609;28;20041;-66
2022/10/10 04:19:05;;;;;;;27.67;13.73;;;;;;;;;;4990182;28;20375;-65
2022/10/10 04:21:30;;;;;;;34.35;14.65;;;;;;;;;;4990610;28;20311;-66
2022/10/10 04:23:55;;;;;;;23.67;13.45;;;;;;;;;;5006369;28;20030;-65
2022/10/10 04:26:20;;;;;;;24.87;15.33;;;;;;;;;;4990429;28;20054;-65
2022/10/10 04:28:46;;;;;;;68.67;14.73;;;;;;;;;;4990659;28;20355;-65
2022/10/10 04:31:11;;;;;;;25.73;14.50;;;;;;;;;;4989640;28;20026;-65
2022/10/10 04:33:36;;;;;;;27.50;15.18;;;;;;;;;;4989909;28;20089;-65
2022/10/10 04:36:02;;;;;;;30.93;14.70;;;;;;;;;;4990638;28;20037;-65
2022/10/10 04:38:28;;;;;;;28.27;14.18;;;;;;;;;;4991088;28;20058;-65
2022/10/10 04:40:53;;;;;;;28.88;14.60;;;;;;;;;;4990249;28;20544;-65
2022/10/10 04:43:19;;;;;;;28.98;13.55;;;;;;;;;;4984939;28;20044;-67
2022/10/10 04:45:44;;;;;;;34.95;14.27;;;;;;;;;;4991081;28;20105;-65
2022/10/10 04:48:10;;;;;;;35.72;14.32;;;;;;;;;;4990707;28;20113;-69
2022/10/10 04:50:35;;;;;;;28.15;13.48;;;;;;;;;;4988590;28;20109;-68
2022/10/10 04:53:01;;;;;;;27.63;13.82;;;;;;;;;;4992267;28;20549;-68
2022/10/10 04:55:26;;;;;;;34.27;13.10;;;;;;;;;;4991299;28;20034;-68
2022/10/10 04:57:51;;;;;;;24.23;13.67;;;;;;;;;;4984175;28;21028;-69
2022/10/10 05:00:16;;;;;;;23.60;13.67;;;;;;;;;;4991718;28;20386;-68
2022/10/10 05:02:42;;;;;;;42.73;14.30;;;;;;;;;;4988216;28;20049;-69
2022/10/10 05:05:07;;;;;;;34.13;13.63;;;;;;;;;;4990163;28;20359;-69
2022/10/10 05:07:33;;;;;;;25.98;13.60;;;;;;;;;;4989690;28;21045;-68
2022/10/10 05:09:58;;;;;;;75.23;15.20;;;;;;;;;;4991760;28;20061;-69
2022/10/10 05:12:23;;;;;;;26.17;14.73;;;;;;;;;;4988353;28;20829;-68
2022/10/10 05:14:49;;;;;;;22.52;14.65;;;;;;;;;;4989106;28;20058;-69
2022/10/10 05:17:14;;;;;;;48.97;14.33;;;;;;;;;;4991871;28;20089;-73
2022/10/10 05:19:39;;;;;;;65.90;13.10;;;;;;;;;;4990046;28;20706;-72
2022/10/10 05:22:04;;;;;;;65.50;13.73;;;;;;;;;;4988925;28;20026;-69
2022/10/10 05:24:30;;;;;;;28.70;14.00;;;;;;;;;;4990607;28;20410;-69
2022/10/10 05:26:55;;;;;;;83.50;14.50;;;;;;;;;;4986797;28;20050;-72
2022/10/10 05:29:20;;;;;;;73.33;14.30;;;;;;;;;;4996771;28;20129;-72
2022/10/10 05:31:45;;;;;;;88.07;14.40;;;;;;;;;;4985998;28;20109;-72
2022/10/10 05:34:12;;;;;;;65.40;14.77;;;;;;;;;;4987438;28;20859;-72
2022/10/10 05:36:37;;;;;;;38.10;14.10;;;;;;;;;;4984369;28;20435;-70
2022/10/10 05:39:02;;;;;;;40.47;15.00;;;;;;;;;;4986441;28;20029;-70
2022/10/10 05:41:28;;;;;;;58.53;16.48;;;;;;;;;;5004241;28;20335;-71
2022/10/10 05:43:53;;;;;;;26.33;16.23;;;;;;;;;;4989170;28;20076;-69
2022/10/10 05:46:19;;;;;;;31.80;16.48;;;;;;;;;;4990575;28;20291;-70
2022/10/10 05:48:44;;;;;;;29.40;17.05;;;;;;;;;;4990733;28;20105;-68
2022/10/10 05:51:11;;;;;;;34.55;15.23;;;;;;;;;;4991136;28;20105;-68
2022/10/10 05:53:36;;;;;;;20.85;13.70;;;;;;;;;;4989940;28;20022;-68
2022/10/10 05:56:02;;;;;;;28.45;15.70;;;;;;;;;;4987222;28;20041;-68
2022/10/10 05:58:27;;;;;;;22.67;16.03;;;;;;;;;;4988766;28;20026;-70
2022/10/10 06:00:53;;;;;;;29.58;16.50;;;;;;;;;;4989684;28;20358;-70
2022/10/10 06:03:18;;;;;;;25.88;15.43;;;;;;;;;;4988887;28;20494;-70
2022/10/10 06:05:47;;;;;;;27.03;14.57;;;;;;;9.66;nan;101339.56;4988189;28;20025;-69
2022/10/10 06:08:13;;;;;;;17.88;12.98;;;;;;;;;;4985300;28;20027;-71
2022/10/10 06:10:39;;;;;;;17.48;13.13;;;;;;;;;;4988840;28;20247;-71
2022/10/10 06:13:05;;;;;;;20.40;12.65;;;;;;;;;;4990517;28;20376;-71
2022/10/10 06:15:30;;;;;;;22.97;14.43;;;;;;;;;;4989644;28;20058;-71
2022/10/10 06:17:55;;;;;;;23.10;14.87;;;;;;;;;;4987681;28;20375;-71
2022/10/10 06:20:20;;;;;;;20.65;15.07;;;;;;;;;;4991909;28;20077;-67
2022/10/10 06:22:46;;;;;;;22.13;15.07;;;;;;;;;;4991151;28;20457;-67
2022/10/10 06:25:11;;;;;;;21.40;14.73;;;;;;;;;;4990782;28;20279;-67
2022/10/10 06:27:36;;;;;;;25.33;14.87;;;;;;;;;;4989618;28;20033;-71
2022/10/10 06:30:02;;;;;;;22.33;14.63;;;;;;;;;;5002161;28;20033;-67
2022/10/10 06:32:27;;;;;;;20.63;14.35;;;;;;;;;;4991096;28;20022;-68
2022/10/10 06:34:52;;;;;;;19.70;13.63;;;;;;;;;;4990211;28;20022;-68
2022/10/10 06:37:17;;;;;;;22.57;14.53;;;;;;;;;;4988585;28;20035;-68
2022/10/10 06:39:43;;;;;;;19.93;13.17;;;;;;;;;;4990640;28;20100;-69
2022/10/10 06:42:08;;;;;;;21.10;13.27;;;;;;;;;;4987588;28;20062;-69
2022/10/10 06:44:33;;;;;;;19.23;13.50;;;;;;;;;;4990955;28;20030;-70
2022/10/10 06:46:59;;;;;;;20.30;13.60;;;;;;;;;;4987756;28;20290;-71
2022/10/10 06:49:24;;;;;;;23.50;14.40;;;;;;;;;;4995779;28;20291;-71
2022/10/10 06:51:49;;;;;;;23.00;14.13;;;;;;;;;;4990815;28;20495;-71
2022/10/10 06:54:14;;;;;;;22.83;14.23;;;;;;;;;;4993922;28;20022;-71
2022/10/10 06:56:39;;;;;;;25.30;15.33;;;;;;;;;;4994418;28;20286;-71
2022/10/10 06:59:05;;;;;;;33.10;17.20;;;;;;;;;;4993367;28;20652;-70
2022/10/10 07:01:30;;;;;;;27.20;16.97;;;;;;;;;;4993860;28;20279;-71
2022/10/10 07:03:55;;;;;;;36.60;19.85;;;;;;;;;;4995282;28;20027;-70
2022/10/10 07:06:21;;;;;;;34.43;20.53;;;;;;;;;;4994550;28;20026;-70
2022/10/10 07:08:46;;;;;;;30.23;18.52;;;;;;;;;;4994600;28;20484;-71
2022/10/10 07:11:11;;;;;;;36.85;21.30;;;;;;;;;;4994438;28;20034;-71
2022/10/10 07:13:37;;;;;;;39.22;22.10;;;;;;;;;;4994629;28;20018;-71
2022/10/10 07:16:03;;;;;;;43.10;22.17;;;;;;;;;;4993225;28;20412;-71
2022/10/10 07:18:28;;;;;;;38.90;23.23;;;;;;;;;;4998196;28;20026;-71
2022/10/10 07:20:57;;;;;;;38.08;22.08;;;;;;;;;;4994468;28;20025;-71
2022/10/10 07:23:23;;;;;;;34.95;22.65;;;;;;;;;;4994510;28;20041;-71
2022/10/10 07:25:48;;;;;;;40.33;24.42;;;;;;;;;;4994439;28;20022;-71
2022/10/10 07:28:14;;;;;;;41.13;23.20;;;;;;;;;;4994408;28;20076;-71
2022/10/10 07:30:40;;;;;;;40.37;24.17;;;;;;;;;;4992874;28;20037;-71
2022/10/10 07:33:05;;;;;;;39.35;23.13;;;;;;;;;;4997685;28;20795;-71
2022/10/10 07:35:30;;;;;;;37.37;22.83;;;;;;;;;;4993699;28;20015;-71
2022/10/10 07:37:55;;;;;;;36.77;21.90;;;;;;;;;;4994278;28;20268;-70
2022/10/10 07:40:21;;;;;;;43.87;23.43;;;;;;;;;;4992594;28;20030;-71
2022/10/10 07:42:46;;;;;;;40.25;23.48;;;;;;;;;;4991673;28;20272;-71
2022/10/10 07:45:11;;;;;;;41.70;23.10;;;;;;;;;;4993883;28;20030;-71
2022/10/10 07:47:37;;;;;;;53.38;26.33;;;;;;;;;;4994394;28;20363;-71
2022/10/10 07:50:05;;;;;;;40.83;25.17;;;;;;;;;;4992076;28;20018;-71
2022/10/10 07:52:30;;;;;;;43.78;25.27;;;;;;;;;;4991233;28;21008;-71
2022/10/10 07:54:55;;;;;;;45.63;25.95;;;;;;;;;;4991376;28;20022;-71
2022/10/10 07:57:20;;;;;;;44.00;25.23;;;;;;;;;;4993965;28;20030;-71
2022/10/10 07:59:46;;;;;;;43.07;24.40;;;;;;;;;;4993649;28;20755;-71
2022/10/10 08:02:11;;;;;;;43.03;25.70;;;;;;;;;;4992309;28;20026;-70
2022/10/10 08:04:36;;;;;;;46.17;26.00;;;;;;;;;;4993557;28;20018;-69
2022/10/10 08:07:01;;;;;;;45.17;27.20;;;;;;;;;;4993881;28;20033;-71
2022/10/10 08:09:27;;;;;;;43.70;25.83;;;;;;;;;;4993136;28;20049;-70
2022/10/10 08:11:52;;;;;;;46.75;25.38;;;;;;;;;;4984014;28;20328;-71
2022/10/10 08:14:18;;;;;;;56.65;29.20;;;;;;;;;;4984012;28;21642;-70
2022/10/10 08:16:43;;;;;;;54.20;28.43;;;;;;;;;;4990867;28;20076;-70
2022/10/10 08:19:08;;;;;;;43.40;27.37;;;;;;;;;;4993555;28;20045;-70
2022/10/10 08:21:35;;;;;;;41.95;26.23;;;;;;;;;;4992131;28;20041;-71
2022/10/10 08:24:00;;;;;;;41.33;25.35;;;;;;;;;;4991857;28;20054;-72
2022/10/10 08:26:26;;;;;;;37.67;24.35;;;;;;;;;;4993434;28;20057;-70
2022/10/10 08:28:51;;;;;;;36.88;24.92;;;;;;;;;;4993264;28;20030;-70
2022/10/10 08:31:17;;;;;;;37.07;23.30;;;;;;;;;;4993614;28;20081;-70
2022/10/10 08:33:44;;;;;;;36.67;22.52;;;;;;;;;;4991945;28;20828;-70
2022/10/10 08:36:12;;;;;;;35.95;23.23;;;;;;;;;;4992404;28;20069;-70
2022/10/10 08:38:37;;;;;;;34.90;23.08;;;;;;;;;;4992672;28;20026;-70
2022/10/10 08:41:21;;;;;;;39.65;23.67;;;;;;;;;;4993033;28;20026;-69
2022/10/10 08:43:49;;;;;;;36.65;23.02;;;;;;;;;;4989977;28;20496;-70
2022/10/10 08:46:18;;;;;;;34.50;23.40;;;;;;;;;;4999065;28;20038;-70
2022/10/10 08:48:45;;;;;;;34.30;22.77;;;;;;;;;;4992203;28;20026;-70
2022/10/10 08:51:12;;;;;;;37.03;22.98;;;;;;;;;;4992411;28;20026;-70
2022/10/10 08:53:40;;;;;;;35.80;21.27;;;;;;;;;;4993109;28;20033;-70
2022/10/10 08:56:06;;;;;;;34.53;20.58;;;;;;;;;;4992595;28;20481;-70
2022/10/10 08:58:33;;;;;;;34.85;21.63;;;;;;;;;;4992907;28;20031;-70
2022/10/10 09:01:01;;;;;;;30.75;21.00;;;;;;;;;;4991298;28;20072;-70
2022/10/10 09:03:34;;;;;;;30.90;21.15;;;;;;;;;;4990652;28;20851;-70
2022/10/10 09:05:59;;;;;;;34.70;22.67;;;;;;;;;;4991564;28;20030;-70
2022/10/10 09:08:30;;;;;;;31.50;20.30;;;;;;;;;;4992613;28;20037;-70
2022/10/10 09:10:58;;;;;;;31.65;19.50;;;;;;;;;;4992107;28;20128;-70
2022/10/10 09:13:35;;;;;;;28.27;19.58;;;;;;;;;;4992581;28;20034;-70
2022/10/10 09:16:02;;;;;;;25.83;18.02;;;;;;;;;;4998750;28;20141;-70
2022/10/10 09:18:46;;;;;;;25.85;18.08;;;;;;;;;;4992658;28;20026;-70
2022/10/10 09:21:13;;;;;;;24.23;16.40;;;;;;;;;;4990098;28;20030;-70
2022/10/10 09:23:41;;;;;;;24.58;17.58;;;;;;;;;;4990785;28;20040;-69
2022/10/10 09:26:15;;;;;;;23.45;16.48;;;;;;;;;;4991213;28;20065;-69
2022/10/10 09:28:43;;;;;;;25.00;17.40;;;;;;;;;;4991845;28;20025;-69
2022/10/10 09:31:31;;;;;;;28.42;17.20;;;;;;;;;;4991947;28;20030;-69
2022/10/10 09:33:59;;;;;;;34.40;17.58;;;;;;;;;;4970002;28;20066;-69
2022/10/10 09:36:27;;;;;;;27.35;16.23;;;;;;;;;;4969088;28;20126;-69
2022/10/10 09:38:55;;;;;;;20.67;15.00;;;;;;;;;;4969972;28;20058;-70
2022/10/10 09:41:35;;;;;;;25.10;16.30;;;;;;;;;;4969950;28;20106;-70
2022/10/10 09:44:03;;;;;;;23.08;15.85;;;;;;;;;;4967332;28;20027;-69
2022/10/10 09:46:28;;;;;;;21.30;15.50;;;;;;;;;;4970186;28;20031;-69
2022/10/10 09:48:54;;;;;;;21.70;16.63;;;;;;;;;;4970489;28;20030;-69
2022/10/10 09:51:19;;;;;;;21.60;15.75;;;;;;;;;;4969635;28;20046;-70
2022/10/10 09:53:46;;;;;;;23.10;15.95;;;;;;;;;;4970532;28;20034;-69
2022/10/10 09:56:21;;;;;;;23.25;15.38;;;;;;;;;;4969984;28;20089;-69
2022/10/10 09:58:48;;;;;;;22.55;15.60;;;;;;;;;;4970964;28;20031;-69
2022/10/10 10:01:16;;;;;;;22.95;15.20;;;;;;;;;;4972543;28;20117;-69
2022/10/10 10:03:41;;;;;;;22.85;15.95;;;;;;;;;;4968318;28;20122;-70
2022/10/10 10:06:11;;;;;;;24.67;15.93;;;;;;;;;;4954525;28;20551;-70
2022/10/10 10:08:37;;;;;;;22.60;16.08;;;;;;;;;;4952395;28;20031;-70
2022/10/10 10:11:03;;;;;;;20.70;15.68;;;;;;;;;;4979559;28;21766;-70
2022/10/10 10:13:33;;;;;;;21.80;14.25;;;;;;;;;;4993854;28;20062;-67
2022/10/10 10:16:04;;;;;;;20.02;14.48;;;;;;;;;;5008663;28;20139;-70
2022/10/10 10:18:29;;;;;;;21.48;13.57;;;;;;;;;;4991362;28;20084;-70
2022/10/10 10:21:01;;;;;;;18.33;13.40;;;;;;;;;;4993001;28;20019;-68
2022/10/10 10:23:39;;;;;;;19.70;14.02;;;;;;;;;;5005589;28;20062;-67
2022/10/10 10:26:13;;;;;;;19.05;13.50;;;;;;;;;;4995377;28;20026;-70
2022/10/10 10:28:39;;;;;;;16.88;13.02;;;;;;;;;;4996459;28;20029;-67
2022/10/10 10:31:05;;;;;;;18.63;13.07;;;;;;;;;;4992786;28;20062;-68
2022/10/10 10:33:36;;;;;;;18.63;13.55;;;;;;;;;;4994350;28;20140;-68
2022/10/10 10:36:21;;;;;;;16.08;12.43;;;;;;;17.38;nan;101295.50;5005949;28;20496;-67
2022/10/10 10:38:46;;;;;;;16.88;11.68;;;;;;;;;;4994829;28;20106;-68
2022/10/10 10:41:11;;;;;;;15.13;12.03;;;;;;;;;;4994950;28;20030;-67
2022/10/10 10:43:57;;;;;;;16.30;12.37;;;;;;;;;;5008955;28;20168;-66
2022/10/10 10:46:48;;;;;;;15.68;11.65;;;;;;;;;;4980782;28;20042;-68
2022/10/10 10:49:15;;;;;;;23.05;12.02;;;;;;;;;;4990901;28;20050;-68
2022/10/10 10:51:49;;;;;;;17.08;11.43;;;;;;;;;;4994068;28;20029;-68
2022/10/10 10:54:15;;;;;;;17.17;11.52;;;;;;;;;;4992235;28;20453;-69
2022/10/10 10:56:44;;;;;;;21.70;11.70;;;;;;;;;;4992639;28;20034;-69
2022/10/10 10:59:20;;;;;;;17.08;11.15;;;;;;;;;;4996195;28;20044;-69
2022/10/10 11:01:57;;;;;;;17.88;11.50;;;;;;;;;;4989605;28;20022;-70
2022/10/10 11:04:31;;;;;;;18.20;11.85;;;;;;;;;;4992038;28;20439;-72
2022/10/10 11:07:14;;;;;;;18.35;10.40;;;;;;;;;;4994767;28;20109;-71
2022/10/10 11:09:52;;;;;;;18.52;10.15;;;;;;;;;;4999870;28;20049;-71
2022/10/10 11:12:17;;;;;;;18.13;11.13;;;;;;;;;;4995308;28;20027;-71
2022/10/10 11:14:48;;;;;;;19.93;11.30;;;;;;;;;;4994153;28;20595;-70
2022/10/10 11:17:18;;;;;;;14.45;10.77;;;;;;;18.76;nan;101334.19;4994994;28;20041;-71
2022/10/10 11:19:55;;;;;;;15.38;10.63;;;;;;;18.84;nan;101275.00;4992390;28;20080;-71
2022/10/10 11:22:37;;;;;;;14.23;10.43;;;;;;;18.93;nan;101259.28;4987566;28;20022;-71
2022/10/10 11:25:22;;;;;;;17.17;11.10;;;;;;;18.96;nan;101272.13;4993470;28;20527;-71
2022/10/10 11:31:59;;;;;;;21.00;10.85;;;;;;;19.13;nan;101264.75;4986565;28;20140;-68
2022/10/10 11:35:14;;;;;;;16.95;11.60;;;;;;;19.22;nan;101253.53;4986543;28;20128;-70
2022/10/10 11:37:46;;;;;;;16.10;10.65;;;;;;;19.24;nan;101222.84;4968542;28;20046;-72
2022/10/10 11:40:49;;;;;;;14.90;10.10;;;;;;;19.30;nan;101251.19;4993307;28;20023;-69
2022/10/10 11:43:18;;;;;;;20.50;11.05;;;;;;;;;;4993174;28;20062;-68
2022/10/10 11:45:46;;;;;;;16.55;11.15;;;;;;;19.31;nan;101243.97;4991248;28;20384;-68
2022/10/10 11:48:17;;;;;;;19.83;10.93;;;;;;;19.35;nan;101247.72;4992869;28;20038;-68
2022/10/10 11:50:43;;;;;;;15.23;11.18;;;;;;;19.43;nan;101238.38;4993512;28;20054;-68
2022/10/10 11:53:17;;;;;;;15.88;10.75;;;;;;;19.41;nan;101261.88;4990800;28;20169;-68
2022/10/10 11:56:01;;;;;;;15.40;9.85;;;;;;;19.50;nan;101242.41;4987912;28;20100;-68
2022/10/10 11:58:43;;;;;;;14.57;10.55;;;;;;;19.53;nan;101243.75;5008183;28;20542;-68
2022/10/10 12:01:24;;;;;;;17.00;10.82;;;;;;;19.42;nan;101218.06;4989527;28;20423;-72
2022/10/10 12:03:51;;;;;;;13.45;10.00;;;;;;;19.47;nan;101176.16;4993922;28;20396;-71
2022/10/10 12:06:22;;;;;;;18.42;10.90;;;;;;;19.56;nan;101227.19;4992346;28;20018;-72
2022/10/10 12:09:06;;;;;;;17.70;11.43;;;;;;;19.52;nan;101215.44;4991824;28;20026;-71
2022/10/10 12:11:48;;;;;;;20.27;10.60;;;;;;;19.40;nan;101205.00;4992982;28;20027;-71
2022/10/10 12:14:17;;;;;;;18.27;10.73;;;;;;;19.43;nan;101223.16;4991179;28;20048;-71
2022/10/10 12:16:42;;;;;;;16.45;11.13;;;;;;;;;;4992478;28;20057;-71
2022/10/10 12:19:23;;;;;;;17.15;10.88;;;;;;;19.36;nan;101190.56;4991552;28;20042;-72
2022/10/10 12:22:03;;;;;;;19.67;10.10;;;;;;;19.48;nan;101225.03;4991145;28;20022;-72
2022/10/10 12:24:35;;;;;;;14.85;8.80;;;;;;;19.52;nan;101223.47;4989683;28;20029;-72
2022/10/10 12:27:00;;;;;;;10.55;8.40;;;;;;;19.45;nan;101194.31;4992018;28;20093;-71
2022/10/10 12:29:41;;;;;;;15.20;8.60;;;;;;;19.42;nan;101199.38;4991639;28;20026;-71
2022/10/10 12:32:12;;;;;;;12.93;9.25;;;;;;;19.43;nan;101195.66;4991839;28;20291;-71
2022/10/10 12:34:40;;;;;;;22.30;8.90;;;;;;;19.43;nan;101207.13;4992510;28;20495;-71
2022/10/10 12:37:20;;;;;;;13.48;8.93;;;;;;;19.34;nan;101200.69;4992292;28;20023;-71
2022/10/10 12:40:01;;;;;;;11.13;8.18;;;;;;;19.43;nan;101209.00;4992079;28;20040;-71
2022/10/10 12:42:38;;;;;;;13.05;8.85;;;;;;;19.45;nan;101164.16;4990908;28;20023;-70
2022/10/10 12:45:29;;;;;;;15.55;8.73;;;;;;;19.48;nan;101211.69;4989579;28;20030;-71
2022/10/10 12:48:18;;;;;;;10.60;8.80;;;;;;;19.54;nan;101197.28;4990366;28;20029;-70
2022/10/10 12:50:59;;;;;;;12.23;8.48;;;;;;;19.51;nan;101190.59;4987352;28;20567;-70
2022/10/10 12:53:28;;;;;;;19.40;8.45;;;;;;;19.48;nan;101185.78;4991527;28;20033;-70
2022/10/10 12:55:55;;;;;;;;;;;;;;;19.45;nan;101180.16;4991249;28;20100;-73
2022/10/10 12:58:23;;;;;;;16.00;8.73;;;;;;;19.53;nan;101209.03;5006686;28;19996;-71
2022/10/10 13:00:49;;;;;;;13.65;8.57;;;;;;;19.52;nan;101172.69;4990492;28;20432;-72
2022/10/10 13:03:25;;;;;;;12.60;8.75;;;;;;;;;;4991987;28;20030;-72
2022/10/10 13:05:51;;;;;;;10.75;8.48;;;;;;;;;;4991822;28;20034;-70
2022/10/10 13:08:25;;;;;;;15.25;8.52;;;;;;;19.52;nan;101173.50;4992554;28;20464;-71
2022/10/10 13:11:01;;;;;;;15.15;8.70;;;;;;;19.57;nan;101188.72;4988361;28;20068;-72
2022/10/10 13:13:27;;;;;;;13.77;8.80;;;;;;;19.56;nan;101235.19;4993174;28;20033;-70
2022/10/10 13:15:55;;;;;;;12.52;8.23;;;;;;;19.56;nan;101184.44;4992098;28;20043;-71
2022/10/10 13:18:47;;;;;;;17.25;8.75;;;;;;;19.55;nan;101193.53;4988175;28;20034;-70
2022/10/10 13:21:14;;;;;;;12.18;8.13;;;;;;;19.54;nan;101190.06;5000804;28;20508;-70
2022/10/10 13:23:42;;;;;;;13.30;8.65;;;;;;;19.50;nan;101183.63;4991090;28;20121;-71
2022/10/10 13:26:23;;;;;;;14.00;8.30;;;;;;;19.44;nan;101101.09;4993781;28;20022;-70
2022/10/10 13:28:52;;;;;;;12.38;8.68;;;;;;;;;;4990101;28;20077;-71
2022/10/10 13:31:18;;;;;;;13.02;8.52;;;;;;;19.30;nan;101149.69;4990407;28;20037;-72
2022/10/10 13:33:44;;;;;;;14.27;8.10;;;;;;;19.20;nan;101157.69;4989982;28;20034;-72
2022/10/10 13:36:20;;;;;;;10.82;8.07;;;;;;;19.23;nan;101167.84;4991683;28;20488;-71
2022/10/10 13:38:48;;;;;;;13.68;8.10;;;;;;;19.27;nan;101216.97;4991187;28;20231;-70
2022/10/10 13:41:17;;;;;;;14.90;8.52;;;;;;;19.20;nan;101141.69;4992595;28;20030;-71
2022/10/10 13:43:43;;;;;;;13.77;8.15;;;;;;;19.30;nan;101154.25;4990385;28;20030;-70
2022/10/10 13:46:20;;;;;;;15.05;8.40;;;;;;;19.35;nan;101178.28;4990311;28;20108;-72
2022/10/10 13:48:45;;;;;;;11.02;7.95;;;;;;;19.38;nan;101153.72;4989705;28;20026;-71
2022/10/10 13:51:13;;;;;;;11.27;8.23;;;;;;;19.39;nan;101119.78;4991781;28;20034;-70
2022/10/10 13:53:43;;;;;;;14.43;8.75;;;;;;;19.37;nan;101167.31;4989814;28;20026;-70
2022/10/10 13:56:17;;;;;;;16.25;9.48;;;;;;;;;;5005705;28;20129;-71